sensor_id;sensor_type;location;lat;lon;timestamp;temperature;humidity
54614;DHT22;40514;52.758;6.360;2022-12-17T00:00:45;0.30;99.90
54614;DHT22;40514;52.758;6.360;2022-12-17T00:03:29;0.30;99.90
54614;DHT22;40514;52.758;6.360;2022-12-17T00:06:13;0.30;99.90
54614;DHT22;40514;52.758;6.360;2022-12-17T00:08:57;0.40;99.90
54614;DHT22;40514;52.758;6.360;2022-12-17T00:11:41;0.40;99.90
54614;DHT22;40514;52.758;6.360;2022-12-17T00:14:26;0.30;99.90
54614;DHT22;40514;52.758;6.360;2022-12-17T00:17:10;0.30;99.90
54614;DHT22;40514;52.758;6.360;2022-12-17T00:19:54;0.30;99.90
54614;DHT22;40514;52.758;6.360;2022-12-17T00:22:38;0.30;99.90
54614;DHT22;40514;52.758;6.360;2022-12-17T00:25:22;0.30;99.90
54614;DHT22;40514;52.758;6.360;2022-12-17T00:28:13;0.40;99.90
54614;DHT22;40514;52.758;6.360;2022-12-17T00:30:57;0.50;99.90
54614;DHT22;40514;52.758;6.360;2022-12-17T00:33:42;0.50;99.90
54614;DHT22;40514;52.758;6.360;2022-12-17T00:36:26;0.50;99.90
54614;DHT22;40514;52.758;6.360;2022-12-17T00:39:10;0.50;99.90
54614;DHT22;40514;52.758;6.360;2022-12-17T00:41:57;0.50;99.90
54614;DHT22;40514;52.758;6.360;2022-12-17T00:44:41;0.50;99.90
54614;DHT22;40514;52.758;6.360;2022-12-17T00:47:25;0.50;99.90
54614;DHT22;40514;52.758;6.360;2022-12-17T00:50:10;0.50;99.90
54614;DHT22;40514;52.758;6.360;2022-12-17T00:52:54;0.50;99.90
54614;DHT22;40514;52.758;6.360;2022-12-17T00:55:38;0.50;99.90
54614;DHT22;40514;52.758;6.360;2022-12-17T00:58:22;0.60;99.90
54614;DHT22;40514;52.758;6.360;2022-12-17T01:01:07;0.50;99.90
54614;DHT22;40514;52.758;6.360;2022-12-17T01:03:51;0.50;99.90
54614;DHT22;40514;52.758;6.360;2022-12-17T01:06:35;0.70;99.90
54614;DHT22;40514;52.758;6.360;2022-12-17T01:09:19;0.50;99.90
54614;DHT22;40514;52.758;6.360;2022-12-17T01:12:04;0.50;99.90
54614;DHT22;40514;52.758;6.360;2022-12-17T01:14:48;0.50;99.90
54614;DHT22;40514;52.758;6.360;2022-12-17T01:17:42;0.50;99.90
54614;DHT22;40514;52.758;6.360;2022-12-17T01:20:27;0.50;99.90
54614;DHT22;40514;52.758;6.360;2022-12-17T01:23:11;0.80;99.90
54614;DHT22;40514;52.758;6.360;2022-12-17T01:25:56;0.50;99.90
54614;DHT22;40514;52.758;6.360;2022-12-17T01:28:41;0.50;99.90
54614;DHT22;40514;52.758;6.360;2022-12-17T01:31:25;0.40;99.90
54614;DHT22;40514;52.758;6.360;2022-12-17T01:34:10;0.40;99.90
54614;DHT22;40514;52.758;6.360;2022-12-17T01:36:54;0.40;99.90
54614;DHT22;40514;52.758;6.360;2022-12-17T01:39:38;0.40;99.90
54614;DHT22;40514;52.758;6.360;2022-12-17T01:42:23;0.40;99.90
54614;DHT22;40514;52.758;6.360;2022-12-17T01:45:13;0.40;99.90
54614;DHT22;40514;52.758;6.360;2022-12-17T01:48:02;0.40;99.90
54614;DHT22;40514;52.758;6.360;2022-12-17T01:50:52;0.40;99.90
54614;DHT22;40514;52.758;6.360;2022-12-17T01:53:43;0.40;99.90
54614;DHT22;40514;52.758;6.360;2022-12-17T01:56:29;0.40;99.90
54614;DHT22;40514;52.758;6.360;2022-12-17T01:59:14;0.50;99.90
54614;DHT22;40514;52.758;6.360;2022-12-17T02:02:00;0.40;99.90
54614;DHT22;40514;52.758;6.360;2022-12-17T02:04:44;0.40;99.90
54614;DHT22;40514;52.758;6.360;2022-12-17T02:07:50;0.40;99.90
54614;DHT22;40514;52.758;6.360;2022-12-17T02:10:56;0.40;99.90
54614;DHT22;40514;52.758;6.360;2022-12-17T02:13:53;0.40;99.90
54614;DHT22;40514;52.758;6.360;2022-12-17T02:16:44;0.40;99.90
54614;DHT22;40514;52.758;6.360;2022-12-17T02:25:50;0.40;99.90
54614;DHT22;40514;52.758;6.360;2022-12-17T02:28:38;0.60;99.90
54614;DHT22;40514;52.758;6.360;2022-12-17T02:31:23;0.40;99.90
54614;DHT22;40514;52.758;6.360;2022-12-17T02:34:07;0.40;99.90
54614;DHT22;40514;52.758;6.360;2022-12-17T02:36:51;0.50;99.90
54614;DHT22;40514;52.758;6.360;2022-12-17T02:39:36;0.50;99.90
54614;DHT22;40514;52.758;6.360;2022-12-17T02:42:22;0.50;99.90
54614;DHT22;40514;52.758;6.360;2022-12-17T02:45:06;0.40;99.90
54614;DHT22;40514;52.758;6.360;2022-12-17T02:47:51;0.40;99.90
54614;DHT22;40514;52.758;6.360;2022-12-17T02:50:36;0.50;99.90
54614;DHT22;40514;52.758;6.360;2022-12-17T02:53:20;0.50;99.90
54614;DHT22;40514;52.758;6.360;2022-12-17T02:56:04;0.50;99.90
54614;DHT22;40514;52.758;6.360;2022-12-17T02:58:48;0.50;99.90
54614;DHT22;40514;52.758;6.360;2022-12-17T03:01:32;0.50;99.90
54614;DHT22;40514;52.758;6.360;2022-12-17T03:04:16;0.50;99.90
54614;DHT22;40514;52.758;6.360;2022-12-17T03:07:00;0.40;99.90
54614;DHT22;40514;52.758;6.360;2022-12-17T03:09:45;0.40;99.90
54614;DHT22;40514;52.758;6.360;2022-12-17T03:12:29;0.40;99.90
54614;DHT22;40514;52.758;6.360;2022-12-17T03:15:13;0.40;99.90
54614;DHT22;40514;52.758;6.360;2022-12-17T03:17:57;0.50;99.90
54614;DHT22;40514;52.758;6.360;2022-12-17T03:20:41;0.70;99.90
54614;DHT22;40514;52.758;6.360;2022-12-17T03:23:25;0.30;99.90
54614;DHT22;40514;52.758;6.360;2022-12-17T03:26:09;0.30;99.90
54614;DHT22;40514;52.758;6.360;2022-12-17T03:28:53;0.30;99.90
54614;DHT22;40514;52.758;6.360;2022-12-17T03:31:38;0.40;99.90
54614;DHT22;40514;52.758;6.360;2022-12-17T03:34:21;0.30;99.90
54614;DHT22;40514;52.758;6.360;2022-12-17T03:37:06;0.30;99.90
54614;DHT22;40514;52.758;6.360;2022-12-17T03:39:50;0.60;99.90
54614;DHT22;40514;52.758;6.360;2022-12-17T03:42:34;0.40;99.90
54614;DHT22;40514;52.758;6.360;2022-12-17T03:45:18;0.40;99.90
54614;DHT22;40514;52.758;6.360;2022-12-17T03:48:11;0.40;99.90
54614;DHT22;40514;52.758;6.360;2022-12-17T03:50:56;0.40;99.90
54614;DHT22;40514;52.758;6.360;2022-12-17T03:53:41;0.40;99.90
54614;DHT22;40514;52.758;6.360;2022-12-17T03:56:26;0.40;99.90
54614;DHT22;40514;52.758;6.360;2022-12-17T03:59:10;0.50;99.90
54614;DHT22;40514;52.758;6.360;2022-12-17T04:01:55;0.50;99.90
54614;DHT22;40514;52.758;6.360;2022-12-17T04:04:39;0.60;99.90
54614;DHT22;40514;52.758;6.360;2022-12-17T04:07:23;0.50;99.90
54614;DHT22;40514;52.758;6.360;2022-12-17T04:10:08;0.50;99.90
54614;DHT22;40514;52.758;6.360;2022-12-17T04:12:52;0.60;99.90
54614;DHT22;40514;52.758;6.360;2022-12-17T04:15:37;0.50;99.90
54614;DHT22;40514;52.758;6.360;2022-12-17T04:18:21;0.50;99.90
54614;DHT22;40514;52.758;6.360;2022-12-17T04:21:05;0.50;99.90
54614;DHT22;40514;52.758;6.360;2022-12-17T04:23:49;0.50;99.90
54614;DHT22;40514;52.758;6.360;2022-12-17T04:26:33;0.50;99.90
54614;DHT22;40514;52.758;6.360;2022-12-17T04:29:17;0.60;99.90
54614;DHT22;40514;52.758;6.360;2022-12-17T04:32:02;0.50;99.90
54614;DHT22;40514;52.758;6.360;2022-12-17T04:34:45;0.60;99.90
54614;DHT22;40514;52.758;6.360;2022-12-17T04:37:30;0.50;99.90
54614;DHT22;40514;52.758;6.360;2022-12-17T04:40:14;0.50;99.90
54614;DHT22;40514;52.758;6.360;2022-12-17T04:43:08;0.50;99.90
54614;DHT22;40514;52.758;6.360;2022-12-17T04:45:52;0.50;99.90
54614;DHT22;40514;52.758;6.360;2022-12-17T04:48:36;0.50;99.90
54614;DHT22;40514;52.758;6.360;2022-12-17T04:51:20;0.50;99.90
54614;DHT22;40514;52.758;6.360;2022-12-17T04:54:05;0.60;99.90
54614;DHT22;40514;52.758;6.360;2022-12-17T04:56:52;0.50;99.90
54614;DHT22;40514;52.758;6.360;2022-12-17T04:59:36;0.50;99.90
54614;DHT22;40514;52.758;6.360;2022-12-17T05:02:20;0.60;99.90
54614;DHT22;40514;52.758;6.360;2022-12-17T05:05:05;0.50;99.90
54614;DHT22;40514;52.758;6.360;2022-12-17T05:07:53;0.50;99.90
54614;DHT22;40514;52.758;6.360;2022-12-17T05:10:38;0.50;99.90
54614;DHT22;40514;52.758;6.360;2022-12-17T05:13:22;0.50;99.90
54614;DHT22;40514;52.758;6.360;2022-12-17T05:16:06;0.50;99.90
54614;DHT22;40514;52.758;6.360;2022-12-17T05:18:50;0.50;99.90
54614;DHT22;40514;52.758;6.360;2022-12-17T05:21:35;0.50;99.90
54614;DHT22;40514;52.758;6.360;2022-12-17T05:24:19;0.50;99.90
54614;DHT22;40514;52.758;6.360;2022-12-17T05:27:03;0.40;99.90
54614;DHT22;40514;52.758;6.360;2022-12-17T05:29:47;0.40;99.90
54614;DHT22;40514;52.758;6.360;2022-12-17T05:32:32;0.40;99.90
54614;DHT22;40514;52.758;6.360;2022-12-17T05:35:16;0.40;99.90
54614;DHT22;40514;52.758;6.360;2022-12-17T05:38:07;0.40;99.90
54614;DHT22;40514;52.758;6.360;2022-12-17T05:40:58;0.40;99.90
54614;DHT22;40514;52.758;6.360;2022-12-17T05:43:42;0.40;99.90
54614;DHT22;40514;52.758;6.360;2022-12-17T05:46:27;0.50;99.90
54614;DHT22;40514;52.758;6.360;2022-12-17T05:49:12;0.40;99.90
54614;DHT22;40514;52.758;6.360;2022-12-17T05:52:06;0.10;99.90
54614;DHT22;40514;52.758;6.360;2022-12-17T05:54:51;0.40;99.90
54614;DHT22;40514;52.758;6.360;2022-12-17T05:57:35;0.40;99.90
54614;DHT22;40514;52.758;6.360;2022-12-17T06:00:19;0.30;99.90
54614;DHT22;40514;52.758;6.360;2022-12-17T06:03:04;0.30;99.90
54614;DHT22;40514;52.758;6.360;2022-12-17T06:05:52;0.30;99.90
54614;DHT22;40514;52.758;6.360;2022-12-17T06:08:37;0.30;99.90
54614;DHT22;40514;52.758;6.360;2022-12-17T06:11:21;0.30;99.90
54614;DHT22;40514;52.758;6.360;2022-12-17T06:14:07;0.20;99.90
54614;DHT22;40514;52.758;6.360;2022-12-17T06:16:51;0.20;99.90
54614;DHT22;40514;52.758;6.360;2022-12-17T06:19:35;0.20;99.90
54614;DHT22;40514;52.758;6.360;2022-12-17T06:22:19;0.20;99.90
54614;DHT22;40514;52.758;6.360;2022-12-17T06:25:04;0.20;99.90
54614;DHT22;40514;52.758;6.360;2022-12-17T06:27:48;0.10;99.90
54614;DHT22;40514;52.758;6.360;2022-12-17T06:30:32;0.10;99.90
54614;DHT22;40514;52.758;6.360;2022-12-17T06:33:16;0.10;99.90
54614;DHT22;40514;52.758;6.360;2022-12-17T06:36:01;0.10;99.90
54614;DHT22;40514;52.758;6.360;2022-12-17T06:38:45;0.10;99.90
54614;DHT22;40514;52.758;6.360;2022-12-17T06:41:29;0.10;99.90
54614;DHT22;40514;52.758;6.360;2022-12-17T06:44:13;0.10;99.90
54614;DHT22;40514;52.758;6.360;2022-12-17T06:46:57;0.10;99.90
54614;DHT22;40514;52.758;6.360;2022-12-17T06:49:41;0.00;99.90
54614;DHT22;40514;52.758;6.360;2022-12-17T06:52:26;0.00;99.90
54614;DHT22;40514;52.758;6.360;2022-12-17T06:55:10;0.00;99.90
54614;DHT22;40514;52.758;6.360;2022-12-17T06:58:00;0.00;99.90
54614;DHT22;40514;52.758;6.360;2022-12-17T07:00:45;0.00;99.90
54614;DHT22;40514;52.758;6.360;2022-12-17T07:03:30;0.00;99.90
54614;DHT22;40514;52.758;6.360;2022-12-17T07:06:14;0.00;99.90
54614;DHT22;40514;52.758;6.360;2022-12-17T07:08:58;0.00;99.90
54614;DHT22;40514;52.758;6.360;2022-12-17T07:11:42;0.00;99.90
54614;DHT22;40514;52.758;6.360;2022-12-17T07:14:26;0.00;99.90
54614;DHT22;40514;52.758;6.360;2022-12-17T07:17:10;-0.10;99.90
54614;DHT22;40514;52.758;6.360;2022-12-17T07:19:54;-0.10;99.90
54614;DHT22;40514;52.758;6.360;2022-12-17T07:22:39;-0.10;99.90
54614;DHT22;40514;52.758;6.360;2022-12-17T07:25:23;-0.10;99.90
54614;DHT22;40514;52.758;6.360;2022-12-17T07:28:07;-0.10;99.90
54614;DHT22;40514;52.758;6.360;2022-12-17T07:30:51;-0.20;99.90
54614;DHT22;40514;52.758;6.360;2022-12-17T07:33:36;-0.20;99.90
54614;DHT22;40514;52.758;6.360;2022-12-17T07:36:20;-0.20;99.90
54614;DHT22;40514;52.758;6.360;2022-12-17T07:39:04;-0.20;99.90
54614;DHT22;40514;52.758;6.360;2022-12-17T07:41:49;-0.20;99.90
54614;DHT22;40514;52.758;6.360;2022-12-17T07:44:33;0.10;99.90
54614;DHT22;40514;52.758;6.360;2022-12-17T07:47:17;-0.20;99.90
54614;DHT22;40514;52.758;6.360;2022-12-17T07:50:01;-0.20;99.90
54614;DHT22;40514;52.758;6.360;2022-12-17T07:52:46;-0.20;99.90
54614;DHT22;40514;52.758;6.360;2022-12-17T07:55:30;-0.20;99.90
54614;DHT22;40514;52.758;6.360;2022-12-17T07:58:14;-0.10;99.90
54614;DHT22;40514;52.758;6.360;2022-12-17T08:00:59;-0.20;99.90
54614;DHT22;40514;52.758;6.360;2022-12-17T08:03:43;-0.20;99.90
54614;DHT22;40514;52.758;6.360;2022-12-17T08:06:28;-0.20;99.90
54614;DHT22;40514;52.758;6.360;2022-12-17T08:09:12;-0.20;99.90
54614;DHT22;40514;52.758;6.360;2022-12-17T08:11:56;-0.30;99.90
54614;DHT22;40514;52.758;6.360;2022-12-17T08:14:40;0.10;99.90
54614;DHT22;40514;52.758;6.360;2022-12-17T08:17:25;-0.20;99.90
54614;DHT22;40514;52.758;6.360;2022-12-17T08:20:09;-0.20;99.90
54614;DHT22;40514;52.758;6.360;2022-12-17T08:23:00;-0.20;99.90
54614;DHT22;40514;52.758;6.360;2022-12-17T08:25:44;-0.20;99.90
54614;DHT22;40514;52.758;6.360;2022-12-17T08:28:29;0.10;99.90
54614;DHT22;40514;52.758;6.360;2022-12-17T08:31:13;-1.00;99.90
54614;DHT22;40514;52.758;6.360;2022-12-17T08:33:57;-0.30;99.90
54614;DHT22;40514;52.758;6.360;2022-12-17T08:36:41;-0.30;99.90
54614;DHT22;40514;52.758;6.360;2022-12-17T08:39:26;-0.30;99.90
54614;DHT22;40514;52.758;6.360;2022-12-17T08:42:10;-0.40;99.90
54614;DHT22;40514;52.758;6.360;2022-12-17T08:44:54;-0.40;99.90
54614;DHT22;40514;52.758;6.360;2022-12-17T08:47:38;-0.40;99.90
54614;DHT22;40514;52.758;6.360;2022-12-17T08:50:23;-0.40;99.90
54614;DHT22;40514;52.758;6.360;2022-12-17T08:53:07;-0.30;99.90
54614;DHT22;40514;52.758;6.360;2022-12-17T08:55:51;-0.30;99.90
54614;DHT22;40514;52.758;6.360;2022-12-17T08:58:35;-0.20;99.90
54614;DHT22;40514;52.758;6.360;2022-12-17T09:01:19;-0.20;99.90
54614;DHT22;40514;52.758;6.360;2022-12-17T09:04:04;-0.20;99.90
54614;DHT22;40514;52.758;6.360;2022-12-17T09:06:48;-0.10;99.90
54614;DHT22;40514;52.758;6.360;2022-12-17T09:09:32;-0.20;99.90
54614;DHT22;40514;52.758;6.360;2022-12-17T09:12:16;-0.10;99.90
54614;DHT22;40514;52.758;6.360;2022-12-17T09:15:00;-0.10;99.90
54614;DHT22;40514;52.758;6.360;2022-12-17T09:17:45;-0.10;99.90
54614;DHT22;40514;52.758;6.360;2022-12-17T09:20:29;-0.10;99.90
54614;DHT22;40514;52.758;6.360;2022-12-17T09:23:16;0.00;99.90
54614;DHT22;40514;52.758;6.360;2022-12-17T09:26:01;0.10;99.90
54614;DHT22;40514;52.758;6.360;2022-12-17T09:28:45;0.00;99.90
54614;DHT22;40514;52.758;6.360;2022-12-17T09:31:30;0.00;99.90
54614;DHT22;40514;52.758;6.360;2022-12-17T09:34:17;-0.10;99.90
54614;DHT22;40514;52.758;6.360;2022-12-17T09:37:01;0.00;99.90
54614;DHT22;40514;52.758;6.360;2022-12-17T09:39:45;0.00;99.90
54614;DHT22;40514;52.758;6.360;2022-12-17T09:42:44;0.40;99.90
54614;DHT22;40514;52.758;6.360;2022-12-17T09:45:45;0.10;99.90
54614;DHT22;40514;52.758;6.360;2022-12-17T09:48:34;0.10;99.90
54614;DHT22;40514;52.758;6.360;2022-12-17T09:51:24;0.20;99.90
54614;DHT22;40514;52.758;6.360;2022-12-17T09:57:14;0.30;99.90
54614;DHT22;40514;52.758;6.360;2022-12-17T10:00:05;0.30;99.90
54614;DHT22;40514;52.758;6.360;2022-12-17T10:02:49;0.40;99.90
54614;DHT22;40514;52.758;6.360;2022-12-17T10:05:34;0.60;99.90
54614;DHT22;40514;52.758;6.360;2022-12-17T10:08:20;0.70;99.90
54614;DHT22;40514;52.758;6.360;2022-12-17T10:11:28;0.70;99.90
54614;DHT22;40514;52.758;6.360;2022-12-17T10:14:18;0.80;99.90
54614;DHT22;40514;52.758;6.360;2022-12-17T10:17:03;0.70;99.90
54614;DHT22;40514;52.758;6.360;2022-12-17T10:19:53;0.70;99.90
54614;DHT22;40514;52.758;6.360;2022-12-17T10:22:43;0.80;99.90
54614;DHT22;40514;52.758;6.360;2022-12-17T10:25:27;0.80;99.90
54614;DHT22;40514;52.758;6.360;2022-12-17T10:28:14;0.90;99.90
54614;DHT22;40514;52.758;6.360;2022-12-17T10:31:00;1.00;99.90
54614;DHT22;40514;52.758;6.360;2022-12-17T10:33:44;1.20;99.90
54614;DHT22;40514;52.758;6.360;2022-12-17T10:36:30;1.40;99.90
54614;DHT22;40514;52.758;6.360;2022-12-17T10:39:16;1.60;99.90
54614;DHT22;40514;52.758;6.360;2022-12-17T10:42:02;1.70;99.90
54614;DHT22;40514;52.758;6.360;2022-12-17T10:44:46;1.70;99.90
54614;DHT22;40514;52.758;6.360;2022-12-17T10:47:32;1.80;99.90
54614;DHT22;40514;52.758;6.360;2022-12-17T10:50:18;1.70;99.90
54614;DHT22;40514;52.758;6.360;2022-12-17T10:53:14;1.40;99.90
54614;DHT22;40514;52.758;6.360;2022-12-17T10:56:00;1.60;99.90
54614;DHT22;40514;52.758;6.360;2022-12-17T10:58:48;2.00;99.90
54614;DHT22;40514;52.758;6.360;2022-12-17T11:01:33;2.80;99.90
54614;DHT22;40514;52.758;6.360;2022-12-17T11:04:27;3.90;99.90
54614;DHT22;40514;52.758;6.360;2022-12-17T11:10:36;5.30;99.90
54614;DHT22;40514;52.758;6.360;2022-12-17T11:13:40;5.70;99.90
54614;DHT22;40514;52.758;6.360;2022-12-17T11:16:32;5.80;99.90
54614;DHT22;40514;52.758;6.360;2022-12-17T11:22:43;5.50;99.90
54614;DHT22;40514;52.758;6.360;2022-12-17T11:25:49;5.50;99.90
54614;DHT22;40514;52.758;6.360;2022-12-17T11:28:36;5.00;99.90
54614;DHT22;40514;52.758;6.360;2022-12-17T11:37:41;3.80;99.90
54614;DHT22;40514;52.758;6.360;2022-12-17T11:40:35;3.60;99.90
54614;DHT22;40514;52.758;6.360;2022-12-17T11:43:26;3.50;99.90
54614;DHT22;40514;52.758;6.360;2022-12-17T11:46:40;3.20;99.90
54614;DHT22;40514;52.758;6.360;2022-12-17T11:49:44;3.00;99.90
54614;DHT22;40514;52.758;6.360;2022-12-17T11:55:49;2.80;99.90
54614;DHT22;40514;52.758;6.360;2022-12-17T11:59:03;2.70;99.90
54614;DHT22;40514;52.758;6.360;2022-12-17T12:05:04;2.70;99.90
54614;DHT22;40514;52.758;6.360;2022-12-17T12:08:16;2.70;99.90
54614;DHT22;40514;52.758;6.360;2022-12-17T12:11:24;2.60;99.90
54614;DHT22;40514;52.758;6.360;2022-12-17T12:20:34;2.50;99.90
54614;DHT22;40514;52.758;6.360;2022-12-17T12:26:33;2.40;99.90
54614;DHT22;40514;52.758;6.360;2022-12-17T12:30:07;2.40;99.90
54614;DHT22;40514;52.758;6.360;2022-12-17T12:35:17;2.30;99.90
54614;DHT22;40514;52.758;6.360;2022-12-17T12:38:03;2.20;99.90
54614;DHT22;40514;52.758;6.360;2022-12-17T12:41:02;2.10;99.90
54614;DHT22;40514;52.758;6.360;2022-12-17T12:43:56;2.00;99.90
54614;DHT22;40514;52.758;6.360;2022-12-17T12:47:04;2.00;99.90
54614;DHT22;40514;52.758;6.360;2022-12-17T12:50:26;2.60;99.90
54614;DHT22;40514;52.758;6.360;2022-12-17T12:53:11;2.20;99.90
54614;DHT22;40514;52.758;6.360;2022-12-17T12:55:56;2.20;99.90
54614;DHT22;40514;52.758;6.360;2022-12-17T12:58:41;2.30;99.90
54614;DHT22;40514;52.758;6.360;2022-12-17T13:01:33;2.20;99.90
54614;DHT22;40514;52.758;6.360;2022-12-17T13:04:32;2.10;99.90
54614;DHT22;40514;52.758;6.360;2022-12-17T13:07:28;2.10;99.90
54614;DHT22;40514;52.758;6.360;2022-12-17T13:09:56;2.10;99.90
54614;DHT22;40514;52.758;6.360;2022-12-17T13:12:31;2.20;99.90
54614;DHT22;40514;52.758;6.360;2022-12-17T13:24:50;2.20;99.90
54614;DHT22;40514;52.758;6.360;2022-12-17T13:29:55;2.20;99.90
54614;DHT22;40514;52.758;6.360;2022-12-17T13:32:27;2.10;99.90
54614;DHT22;40514;52.758;6.360;2022-12-17T13:35:05;2.10;99.90
54614;DHT22;40514;52.758;6.360;2022-12-17T13:38:02;2.00;99.90
54614;DHT22;40514;52.758;6.360;2022-12-17T13:40:43;1.90;99.90
54614;DHT22;40514;52.758;6.360;2022-12-17T13:43:17;1.80;99.90
54614;DHT22;40514;52.758;6.360;2022-12-17T13:45:43;1.90;99.90
54614;DHT22;40514;52.758;6.360;2022-12-17T13:48:25;1.50;99.90
54614;DHT22;40514;52.758;6.360;2022-12-17T13:51:00;1.50;99.90
54614;DHT22;40514;52.758;6.360;2022-12-17T13:53:28;1.40;99.90
54614;DHT22;40514;52.758;6.360;2022-12-17T13:55:55;1.40;99.90
54614;DHT22;40514;52.758;6.360;2022-12-17T13:58:24;1.40;99.90
54614;DHT22;40514;52.758;6.360;2022-12-17T14:00:51;1.50;99.90
54614;DHT22;40514;52.758;6.360;2022-12-17T14:03:20;1.50;99.90
54614;DHT22;40514;52.758;6.360;2022-12-17T14:05:46;1.50;99.90
54614;DHT22;40514;52.758;6.360;2022-12-17T14:08:16;1.40;99.90
54614;DHT22;40514;52.758;6.360;2022-12-17T14:10:50;1.40;99.90
54614;DHT22;40514;52.758;6.360;2022-12-17T14:13:16;1.30;99.90
54614;DHT22;40514;52.758;6.360;2022-12-17T14:15:50;1.20;99.90
54614;DHT22;40514;52.758;6.360;2022-12-17T14:18:19;1.20;99.90
54614;DHT22;40514;52.758;6.360;2022-12-17T14:20:45;1.20;99.90
54614;DHT22;40514;52.758;6.360;2022-12-17T14:23:25;1.10;99.90
54614;DHT22;40514;52.758;6.360;2022-12-17T14:25:53;1.10;99.90
54614;DHT22;40514;52.758;6.360;2022-12-17T14:28:34;1.00;99.90
54614;DHT22;40514;52.758;6.360;2022-12-17T14:31:21;0.90;99.90
54614;DHT22;40514;52.758;6.360;2022-12-17T14:33:57;0.90;99.90
54614;DHT22;40514;52.758;6.360;2022-12-17T14:36:23;0.90;99.90
54614;DHT22;40514;52.758;6.360;2022-12-17T14:38:58;0.80;99.90
54614;DHT22;40514;52.758;6.360;2022-12-17T14:41:25;0.80;99.90
54614;DHT22;40514;52.758;6.360;2022-12-17T14:44:19;0.80;99.90
54614;DHT22;40514;52.758;6.360;2022-12-17T14:46:45;0.90;99.90
54614;DHT22;40514;52.758;6.360;2022-12-17T14:49:15;0.70;99.90
54614;DHT22;40514;52.758;6.360;2022-12-17T14:51:42;0.70;99.90
54614;DHT22;40514;52.758;6.360;2022-12-17T14:56:51;0.70;99.90
54614;DHT22;40514;52.758;6.360;2022-12-17T15:01:51;0.70;99.90
54614;DHT22;40514;52.758;6.360;2022-12-17T15:04:18;0.70;99.90
54614;DHT22;40514;52.758;6.360;2022-12-17T15:06:43;0.70;99.90
54614;DHT22;40514;52.758;6.360;2022-12-17T15:09:11;0.90;99.90
54614;DHT22;40514;52.758;6.360;2022-12-17T15:11:37;0.80;99.90
54614;DHT22;40514;52.758;6.360;2022-12-17T15:14:03;0.50;99.90
54614;DHT22;40514;52.758;6.360;2022-12-17T15:16:28;0.40;99.90
54614;DHT22;40514;52.758;6.360;2022-12-17T15:18:54;0.60;99.90
54614;DHT22;40514;52.758;6.360;2022-12-17T15:21:20;0.40;99.90
54614;DHT22;40514;52.758;6.360;2022-12-17T15:23:46;0.30;99.90
54614;DHT22;40514;52.758;6.360;2022-12-17T15:26:12;0.30;99.90
54614;DHT22;40514;52.758;6.360;2022-12-17T15:28:42;0.30;99.90
54614;DHT22;40514;52.758;6.360;2022-12-17T15:31:09;0.20;99.90
54614;DHT22;40514;52.758;6.360;2022-12-17T15:33:36;0.30;99.90
54614;DHT22;40514;52.758;6.360;2022-12-17T15:36:02;0.30;99.90
54614;DHT22;40514;52.758;6.360;2022-12-17T15:38:28;0.20;99.90
54614;DHT22;40514;52.758;6.360;2022-12-17T15:40:54;0.30;99.90
54614;DHT22;40514;52.758;6.360;2022-12-17T15:43:20;0.20;99.90
54614;DHT22;40514;52.758;6.360;2022-12-17T15:45:47;0.20;99.90
54614;DHT22;40514;52.758;6.360;2022-12-17T15:48:18;0.20;99.90
54614;DHT22;40514;52.758;6.360;2022-12-17T15:50:45;0.20;99.90
54614;DHT22;40514;52.758;6.360;2022-12-17T15:53:10;0.10;99.90
54614;DHT22;40514;52.758;6.360;2022-12-17T15:55:36;0.10;99.90
54614;DHT22;40514;52.758;6.360;2022-12-17T15:58:02;0.00;99.90
54614;DHT22;40514;52.758;6.360;2022-12-17T16:00:28;0.00;99.90
54614;DHT22;40514;52.758;6.360;2022-12-17T16:02:54;0.00;99.90
54614;DHT22;40514;52.758;6.360;2022-12-17T16:05:19;-0.10;99.90
54614;DHT22;40514;52.758;6.360;2022-12-17T16:07:46;-0.10;99.90
54614;DHT22;40514;52.758;6.360;2022-12-17T16:10:12;0.00;99.90
54614;DHT22;40514;52.758;6.360;2022-12-17T16:12:38;0.00;99.90
54614;DHT22;40514;52.758;6.360;2022-12-17T16:15:05;0.00;99.90
54614;DHT22;40514;52.758;6.360;2022-12-17T16:17:31;0.50;99.90
54614;DHT22;40514;52.758;6.360;2022-12-17T16:19:56;0.00;99.90
54614;DHT22;40514;52.758;6.360;2022-12-17T16:22:22;-0.10;99.90
54614;DHT22;40514;52.758;6.360;2022-12-17T16:24:48;0.10;99.90
54614;DHT22;40514;52.758;6.360;2022-12-17T16:27:13;-0.20;99.90
54614;DHT22;40514;52.758;6.360;2022-12-17T16:29:40;-0.20;99.90
54614;DHT22;40514;52.758;6.360;2022-12-17T16:32:05;-0.20;99.90
54614;DHT22;40514;52.758;6.360;2022-12-17T16:34:31;-0.20;99.90
54614;DHT22;40514;52.758;6.360;2022-12-17T16:36:56;-0.20;99.90
54614;DHT22;40514;52.758;6.360;2022-12-17T16:39:22;-0.30;99.90
54614;DHT22;40514;52.758;6.360;2022-12-17T16:41:48;-0.30;99.90
54614;DHT22;40514;52.758;6.360;2022-12-17T16:44:13;-0.30;99.90
54614;DHT22;40514;52.758;6.360;2022-12-17T16:46:40;-0.40;99.90
54614;DHT22;40514;52.758;6.360;2022-12-17T16:49:15;-0.40;99.90
54614;DHT22;40514;52.758;6.360;2022-12-17T16:51:44;-0.40;99.90
54614;DHT22;40514;52.758;6.360;2022-12-17T16:54:13;-0.40;99.90
54614;DHT22;40514;52.758;6.360;2022-12-17T16:56:40;-0.40;99.90
54614;DHT22;40514;52.758;6.360;2022-12-17T16:59:07;-0.40;99.90
54614;DHT22;40514;52.758;6.360;2022-12-17T17:01:33;-0.40;99.90
54614;DHT22;40514;52.758;6.360;2022-12-17T17:03:59;-0.40;99.90
54614;DHT22;40514;52.758;6.360;2022-12-17T17:06:25;-0.40;99.90
54614;DHT22;40514;52.758;6.360;2022-12-17T17:08:50;-0.40;99.90
54614;DHT22;40514;52.758;6.360;2022-12-17T17:11:22;-0.20;99.90
54614;DHT22;40514;52.758;6.360;2022-12-17T17:13:49;-0.50;99.90
54614;DHT22;40514;52.758;6.360;2022-12-17T17:16:16;-0.50;99.90
54614;DHT22;40514;52.758;6.360;2022-12-17T17:18:42;-0.50;99.90
54614;DHT22;40514;52.758;6.360;2022-12-17T17:21:27;-0.50;99.90
54614;DHT22;40514;52.758;6.360;2022-12-17T17:24:00;-0.60;99.90
54614;DHT22;40514;52.758;6.360;2022-12-17T17:26:30;-0.60;99.90
54614;DHT22;40514;52.758;6.360;2022-12-17T17:28:57;-0.60;99.90
54614;DHT22;40514;52.758;6.360;2022-12-17T17:31:23;-0.60;99.90
54614;DHT22;40514;52.758;6.360;2022-12-17T17:33:50;-0.60;99.90
54614;DHT22;40514;52.758;6.360;2022-12-17T17:36:17;-0.70;99.90
54614;DHT22;40514;52.758;6.360;2022-12-17T17:38:44;-0.70;99.90
54614;DHT22;40514;52.758;6.360;2022-12-17T17:41:12;-0.80;99.90
54614;DHT22;40514;52.758;6.360;2022-12-17T17:43:38;0.60;99.90
54614;DHT22;40514;52.758;6.360;2022-12-17T17:46:05;-0.80;99.90
54614;DHT22;40514;52.758;6.360;2022-12-17T17:48:32;-0.80;99.90
54614;DHT22;40514;52.758;6.360;2022-12-17T17:51:04;-0.80;99.90
54614;DHT22;40514;52.758;6.360;2022-12-17T17:53:30;-0.80;99.90
54614;DHT22;40514;52.758;6.360;2022-12-17T17:56:02;-0.80;99.90
54614;DHT22;40514;52.758;6.360;2022-12-17T17:58:28;-0.80;99.90
54614;DHT22;40514;52.758;6.360;2022-12-17T18:00:54;-0.80;99.90
54614;DHT22;40514;52.758;6.360;2022-12-17T18:03:19;-0.80;99.90
54614;DHT22;40514;52.758;6.360;2022-12-17T18:05:45;-0.80;99.90
54614;DHT22;40514;52.758;6.360;2022-12-17T18:08:10;-0.60;99.90
54614;DHT22;40514;52.758;6.360;2022-12-17T18:10:36;-0.70;99.90